Time;durP1;ratioP1;P1;durP2;ratioP2;P2;SDS_P1;SDS_P2;PMS_P1;PMS_P2;Temp;Humidity;BMP_temperature;BMP_pressure;BME280_temperature;BME280_humidity;BME280_pressure;Samples;Min_cycle;Max_cycle;Signal;HPM_P1;HPM_P2
2021/01/15 00:00:15;;;;;;;4.28;3.88;;;22.00;27.60;;;;;;5072871;28;20864;-59
2021/01/15 00:02:41;;;;;;;4.18;3.60;;;22.00;27.60;;;;;;5072927;28;20380;-59
2021/01/15 00:05:07;;;;;;;3.87;3.57;;;21.90;27.60;;;;;;5072573;28;20452;-59
2021/01/15 00:07:33;;;;;;;4.40;3.85;;;21.90;27.60;;;;;;5072370;28;20384;-59
2021/01/15 00:09:58;;;;;;;4.07;3.67;;;21.90;27.60;;;;;;5072823;28;20529;-59
2021/01/15 00:12:24;;;;;;;3.95;3.55;;;21.90;27.60;;;;;;5072783;28;20387;-59
2021/01/15 00:14:49;;;;;;;3.80;3.40;;;21.80;27.60;;;;;;5072735;28;20521;-59
2021/01/15 00:17:15;;;;;;;3.97;3.58;;;21.80;27.60;;;;;;5072783;28;20388;-59
2021/01/15 00:19:41;;;;;;;3.80;3.40;;;21.80;27.60;;;;;;5072130;28;20383;-59
2021/01/15 00:22:06;;;;;;;3.40;3.10;;;21.80;27.60;;;;;;5072620;28;20390;-59
2021/01/15 00:24:32;;;;;;;3.60;3.30;;;21.70;27.60;;;;;;5072604;28;20391;-59
2021/01/15 00:26:57;;;;;;;3.50;3.20;;;21.70;27.60;;;;;;5072596;28;20391;-59
2021/01/15 00:29:23;;;;;;;3.50;3.20;;;21.70;27.60;;;;;;5072388;28;20380;-59
2021/01/15 00:31:49;;;;;;;3.60;3.30;;;21.60;27.60;;;;;;5072147;28;20411;-59
2021/01/15 00:34:16;;;;;;;3.53;3.20;;;21.60;27.60;;;;;;5072194;28;20491;-59
2021/01/15 00:36:45;;;;;;;3.47;3.17;;;21.60;27.50;;;;;;5072380;28;20461;-59
2021/01/15 00:39:15;;;;;;;3.63;3.30;;;21.60;27.60;;;;;;5072255;28;20433;-59
2021/01/15 00:41:43;;;;;;;3.90;3.30;;;21.50;27.60;;;;;;5071647;28;20955;-59
2021/01/15 00:44:09;;;;;;;3.38;3.08;;;21.50;27.60;;;;;;5072070;28;20823;-59
2021/01/15 00:46:36;;;;;;;3.53;3.23;;;21.50;27.60;;;;;;5072223;28;20415;-62
2021/01/15 00:49:04;;;;;;;3.45;3.13;;;21.50;27.60;;;;;;5072142;28;20383;-59
2021/01/15 00:51:30;;;;;;;3.33;2.92;;;21.50;27.60;;;;;;5071598;28;20406;-59
2021/01/15 00:53:56;;;;;;;3.40;3.10;;;21.40;27.60;;;;;;5072363;28;20384;-59
2021/01/15 00:56:22;;;;;;;3.67;3.10;;;21.40;28.10;;;;;;5071664;28;20411;-59
2021/01/15 00:58:49;;;;;;;3.77;3.10;;;21.40;27.70;;;;;;5071941;28;20411;-59
2021/01/15 01:01:15;;;;;;;3.30;2.90;;;21.30;27.60;;;;;;5071933;28;20392;-60
2021/01/15 01:03:42;;;;;;;3.67;3.03;;;21.30;27.90;;;;;;5071467;28;20433;-59
2021/01/15 01:06:12;;;;;;;3.17;2.80;;;21.30;27.90;;;;;;5071845;28;20920;-59
2021/01/15 01:08:38;;;;;;;3.10;2.78;;;21.30;27.60;;;;;;5072056;28;20453;-59
2021/01/15 01:11:04;;;;;;;3.30;3.00;;;21.20;27.70;;;;;;5071682;28;20387;-59
2021/01/15 01:13:30;;;;;;;3.42;2.83;;;21.20;27.70;;;;;;5070889;28;20388;-59
2021/01/15 01:15:55;;;;;;;2.80;2.50;;;21.20;27.60;;;;;;5071404;28;20745;-59
2021/01/15 01:18:21;;;;;;;3.50;2.80;;;21.20;28.10;;;;;;5070861;28;20383;-59
2021/01/15 01:20:46;;;;;;;2.90;2.50;;;21.10;28.10;;;;;;5071762;28;20380;-59
2021/01/15 01:23:12;;;;;;;3.05;2.53;;;21.10;28.20;;;;;;5071402;28;20475;-59
2021/01/15 01:25:38;;;;;;;2.60;2.40;;;21.10;28.10;;;;;;5071184;28;20387;-59
2021/01/15 01:28:03;;;;;;;3.35;2.65;;;21.10;28.40;;;;;;5071401;28;20419;-59
2021/01/15 01:30:29;;;;;;;2.63;2.30;;;21.00;28.10;;;;;;5071620;28;20388;-59
2021/01/15 01:32:55;;;;;;;2.53;2.33;;;21.00;28.50;;;;;;5071487;28;20441;-59
2021/01/15 01:35:20;;;;;;;2.75;2.25;;;21.00;28.40;;;;;;5071376;28;20446;-60
2021/01/15 01:37:47;;;;;;;2.78;2.30;;;21.00;28.70;;;;;;5069981;28;21649;-60
2021/01/15 01:40:15;;;;;;;2.80;2.50;;;20.90;28.00;;;;;;5070096;28;20403;-59
2021/01/15 01:42:41;;;;;;;3.20;2.42;;;20.90;27.80;;;;;;5071455;28;20390;-59
2021/01/15 01:45:08;;;;;;;2.55;2.20;;;21.00;27.80;;;;;;5071396;28;20383;-59
2021/01/15 01:47:33;;;;;;;2.70;2.30;;;21.00;27.90;;;;;;5070821;28;20449;-60
2021/01/15 01:49:59;;;;;;;2.47;2.13;;;21.10;28.20;;;;;;5071428;28;20418;-59
2021/01/15 01:52:25;;;;;;;2.80;2.50;;;21.10;28.30;;;;;;5071194;28;20896;-60
2021/01/15 01:54:51;;;;;;;2.90;2.60;;;21.20;28.20;;;;;;5071312;28;20406;-59
2021/01/15 01:57:17;;;;;;;2.70;2.30;;;21.20;28.20;;;;;;5071097;28;20470;-60
2021/01/15 01:59:42;;;;;;;3.20;2.40;;;21.30;28.00;;;;;;5070816;28;20486;-59
2021/01/15 02:02:09;;;;;;;2.60;2.27;;;21.30;28.00;;;;;;5071216;28;20755;-59
2021/01/15 02:04:35;;;;;;;2.60;2.10;;;21.30;28.10;;;;;;5071192;28;20384;-59
2021/01/15 02:07:01;;;;;;;3.07;2.47;;;21.30;28.10;;;;;;5071201;28;20394;-59
2021/01/15 02:10:05;;;;;;;3.00;2.60;;;21.30;27.70;;;;;;5071074;28;20394;-59
2021/01/15 02:12:40;;;;;;;3.03;2.30;;;21.30;27.50;;;;;;5029036;28;20387;-59
2021/01/15 02:15:37;;;;;;;3.05;2.40;;;21.30;27.60;;;;;;5065053;28;20921;-60
2021/01/15 02:18:16;;;;;;;2.75;2.35;;;21.30;27.50;;;;;;5071067;28;21038;-59
2021/01/15 02:21:00;;;;;;;2.90;2.40;;;21.30;27.50;;;;;;5071126;28;20403;-59
2021/01/15 02:23:39;;;;;;;2.93;2.50;;;21.30;27.30;;;;;;5069686;28;20777;-59
2021/01/15 02:26:04;;;;;;;3.00;2.33;;;21.30;27.40;;;;;;5070904;28;20384;-60
2021/01/15 02:28:59;;;;;;;3.38;2.65;;;21.30;27.50;;;;;;5072569;28;20460;-61
2021/01/15 02:31:45;;;;;;;2.60;2.10;;;21.30;27.20;;;;;;5074885;28;20384;-59
2021/01/15 02:34:34;;;;;;;2.85;2.10;;;21.30;27.30;;;;;;5074640;28;20495;-59
2021/01/15 02:37:25;;;;;;;2.80;2.10;;;21.30;27.10;;;;;;5074706;28;20427;-60
2021/01/15 02:40:10;;;;;;;2.53;2.10;;;21.30;27.10;;;;;;5074280;28;20478;-60
2021/01/15 02:42:38;;;;;;;2.67;2.20;;;21.30;27.10;;;;;;5074488;28;20851;-59
2021/01/15 02:45:08;;;;;;;2.78;2.15;;;21.30;27.10;;;;;;5073965;28;20410;-60
2021/01/15 02:47:46;;;;;;;2.80;2.28;;;21.30;27.10;;;;;;5074129;28;20388;-59
2021/01/15 02:50:12;;;;;;;2.67;2.03;;;21.30;27.00;;;;;;5074442;28;20899;-59
2021/01/15 02:52:41;;;;;;;2.70;2.10;;;21.30;27.00;;;;;;5074228;28;20388;-60
2021/01/15 02:55:08;;;;;;;2.45;2.00;;;21.30;27.00;;;;;;5074274;28;20808;-60
2021/01/15 02:57:33;;;;;;;2.50;2.00;;;21.30;27.00;;;;;;5074020;28;20392;-59
2021/01/15 02:59:59;;;;;;;2.37;1.97;;;21.30;27.00;;;;;;5073813;28;20717;-59
2021/01/15 03:02:35;;;;;;;2.15;1.73;;;21.20;26.90;;;;;;5074280;28;20408;-59
2021/01/15 03:05:07;;;;;;;2.63;2.08;;;21.20;27.00;;;;;;5074180;28;20446;-60
2021/01/15 03:07:33;;;;;;;2.30;1.80;;;21.20;27.00;;;;;;5073965;28;20886;-59
2021/01/15 03:10:03;;;;;;;2.30;1.70;;;21.20;27.00;;;;;;5073847;28;20490;-59
2021/01/15 03:12:30;;;;;;;2.25;1.77;;;21.20;26.90;;;;;;5074082;28;20437;-60
2021/01/15 03:14:57;;;;;;;2.70;1.90;;;21.20;27.00;;;;;;5073913;28;20515;-60
2021/01/15 03:17:29;;;;;;;2.60;1.83;;;21.20;26.90;;;;;;5073983;28;20388;-60
2021/01/15 03:19:55;;;;;;;2.15;1.80;;;21.20;26.90;;;;;;5073494;28;20476;-59
2021/01/15 03:22:22;;;;;;;2.30;1.70;;;21.20;26.90;;;;;;5073639;28;20431;-59
2021/01/15 03:24:53;;;;;;;2.45;1.80;;;21.20;26.90;;;;;;5073862;28;20783;-59
2021/01/15 03:27:20;;;;;;;2.40;1.73;;;21.20;26.90;;;;;;5073767;28;20490;-59
2021/01/15 03:29:46;;;;;;;2.10;1.65;;;21.20;26.90;;;;;;5073382;28;20384;-59
2021/01/15 03:32:13;;;;;;;2.75;1.70;;;21.20;27.30;;;;;;5073700;28;20441;-59
2021/01/15 03:34:38;;;;;;;2.10;1.60;;;21.20;26.90;;;;;;5073534;28;20451;-59
2021/01/15 03:37:06;;;;;;;2.38;1.67;;;21.20;26.90;;;;;;5073657;28;20427;-59
2021/01/15 03:39:32;;;;;;;2.30;1.60;;;21.10;26.90;;;;;;5072964;28;20412;-59
2021/01/15 03:41:57;;;;;;;1.92;1.52;;;21.20;26.90;;;;;;5073285;28;20810;-59
2021/01/15 03:44:23;;;;;;;2.37;1.60;;;21.10;26.80;;;;;;5073497;28;20384;-59
2021/01/15 03:46:56;;;;;;;1.90;1.42;;;21.10;26.90;;;;;;5073470;28;20470;-59
2021/01/15 03:49:22;;;;;;;2.25;1.50;;;21.10;26.90;;;;;;5073303;28;20436;-59
2021/01/15 03:51:48;;;;;;;1.88;1.35;;;21.10;27.40;;;;;;5072927;28;20470;-59
2021/01/15 03:54:14;;;;;;;2.00;1.50;;;21.10;26.90;;;;;;5073273;28;20867;-59
2021/01/15 03:56:39;;;;;;;2.50;1.40;;;21.10;26.90;;;;;;5073191;28;20859;-59
2021/01/15 03:59:05;;;;;;;1.90;1.50;;;21.10;27.00;;;;;;5072945;28;20409;-59
2021/01/15 04:01:32;;;;;;;1.90;1.42;;;21.10;27.00;;;;;;5072473;28;20384;-59
2021/01/15 04:03:57;;;;;;;2.05;1.40;;;21.10;26.90;;;;;;5072296;28;20391;-60
2021/01/15 04:06:26;;;;;;;1.73;1.40;;;21.10;27.00;;;;;;5072931;28;20395;-59
2021/01/15 04:08:52;;;;;;;2.50;1.33;;;21.10;27.50;;;;;;5073066;28;20391;-60
2021/01/15 04:11:19;;;;;;;2.00;1.50;;;21.10;27.40;;;;;;5073009;28;20895;-60
2021/01/15 04:13:45;;;;;;;2.30;1.50;;;21.10;27.70;;;;;;5072474;28;20379;-61
2021/01/15 04:16:14;;;;;;;2.70;1.23;;;21.10;27.50;;;;;;5072664;28;20438;-60
2021/01/15 04:18:40;;;;;;;2.13;1.20;;;21.10;27.70;;;;;;5072652;28;20472;-59
2021/01/15 04:21:07;;;;;;;2.20;1.50;;;21.10;27.70;;;;;;5072651;28;20429;-60
2021/01/15 04:23:33;;;;;;;2.00;1.50;;;21.10;27.80;;;;;;5072706;28;20395;-59
2021/01/15 04:25:59;;;;;;;2.10;1.27;;;21.10;28.20;;;;;;5072087;28;20410;-67
2021/01/15 04:28:24;;;;;;;1.70;1.23;;;21.20;28.00;;;;;;5072678;28;20372;-60
2021/01/15 04:30:50;;;;;;;2.20;1.30;;;21.20;28.80;;;;;;5072594;28;20396;-59
2021/01/15 04:33:16;;;;;;;1.77;1.27;;;21.20;29.10;;;;;;5072575;28;20900;-59
2021/01/15 04:35:41;;;;;;;2.47;1.20;;;21.30;29.20;;;;;;5071657;28;20423;-59
2021/01/15 04:38:07;;;;;;;1.77;1.30;;;21.30;29.50;;;;;;5071442;28;20417;-59
2021/01/15 04:40:32;;;;;;;2.47;1.20;;;21.30;29.40;;;;;;5071364;28;20871;-59
2021/01/15 04:43:00;;;;;;;3.33;1.30;;;21.20;28.60;;;;;;5071254;28;20387;-59
2021/01/15 04:45:27;;;;;;;1.80;1.25;;;21.20;29.10;;;;;;5071313;28;20383;-59
2021/01/15 04:47:54;;;;;;;2.70;1.20;;;21.30;29.60;;;;;;5070805;28;20828;-59
2021/01/15 04:50:20;;;;;;;3.45;1.70;;;21.30;29.60;;;;;;5071176;28;20370;-59
2021/01/15 04:52:48;;;;;;;5.30;1.27;;;21.20;29.80;;;;;;5071151;28;20756;-59
2021/01/15 04:55:23;;;;;;;5.13;1.25;;;21.30;29.40;;;;;;5072229;28;20798;-59
2021/01/15 04:57:51;;;;;;;1.90;1.02;;;21.20;29.40;;;;;;5070320;28;20764;-59
2021/01/15 05:00:21;;;;;;;3.90;1.17;;;21.20;29.20;;;;;;5071734;28;20419;-59
2021/01/15 05:02:47;;;;;;;2.05;1.23;;;21.20;28.80;;;;;;5072008;28;20467;-59
2021/01/15 05:05:22;;;;;;;3.67;1.30;;;21.20;29.30;;;;;;5071967;28;20445;-59
2021/01/15 05:08:15;;;;;;;2.73;1.10;;;21.10;28.50;;;;;;5071449;28;20423;-59
2021/01/15 05:10:44;;;;;;;2.70;1.10;;;21.20;28.80;;;;;;5070031;28;20921;-59
2021/01/15 05:13:12;;;;;;;3.65;1.15;;;21.20;29.50;;;;;;5072056;28;20543;-59
2021/01/15 05:15:41;;;;;;;2.65;1.15;;;21.20;29.40;;;;;;5071429;28;20411;-59
2021/01/15 05:18:07;;;;;;;1.60;1.20;;;21.10;29.10;;;;;;5071430;28;20406;-59
2021/01/15 05:20:34;;;;;;;2.30;1.10;;;21.10;28.80;;;;;;5072046;28;20402;-59
2021/01/15 05:23:01;;;;;;;1.67;1.10;;;21.10;28.60;;;;;;5071482;28;20399;-59
2021/01/15 05:25:27;;;;;;;2.17;1.05;;;21.10;28.70;;;;;;5071884;28;20413;-59
2021/01/15 05:27:54;;;;;;;2.80;1.30;;;21.10;28.80;;;;;;5071429;28;20403;-59
2021/01/15 05:30:23;;;;;;;2.22;1.20;;;21.10;28.50;;;;;;5071377;28;20379;-59
2021/01/15 05:32:54;;;;;;;3.03;1.05;;;21.10;28.40;;;;;;5071241;28;20862;-60
2021/01/15 05:35:21;;;;;;;2.55;1.13;;;21.10;28.60;;;;;;5071080;28;20469;-59
2021/01/15 05:37:58;;;;;;;3.00;1.00;;;21.00;28.40;;;;;;5069103;28;20490;-59
2021/01/15 05:40:43;;;;;;;2.35;1.10;;;21.10;28.20;;;;;;5069530;28;20475;-59
2021/01/15 05:43:31;;;;;;;2.17;1.02;;;21.00;28.00;;;;;;5069571;28;20482;-59
2021/01/15 05:46:21;;;;;;;3.70;1.00;;;21.00;28.00;;;;;;5070042;28;20398;-59
2021/01/15 05:48:48;;;;;;;2.63;1.02;;;21.00;27.80;;;;;;5071087;28;20489;-59
2021/01/15 05:51:33;;;;;;;1.90;1.10;;;21.00;27.80;;;;;;5071145;28;20394;-59
2021/01/15 05:54:00;;;;;;;3.42;1.20;;;21.00;27.80;;;;;;5070900;28;20896;-59
2021/01/15 05:56:36;;;;;;;2.27;1.00;;;21.00;27.80;;;;;;5070843;28;20503;-59
2021/01/15 05:59:06;;;;;;;3.65;1.08;;;21.00;27.80;;;;;;5071083;28;20392;-59
2021/01/15 06:01:56;;;;;;;1.70;1.00;;;21.00;27.60;;;;;;5069732;28;20423;-59
2021/01/15 06:04:35;;;;;;;1.98;1.08;;;21.00;27.60;;;;;;5074128;28;20372;-59
2021/01/15 06:07:06;;;;;;;2.92;1.00;;;21.00;27.60;;;;;;5075317;28;20478;-60
2021/01/15 06:09:32;;;;;;;2.55;1.13;;;20.90;27.50;;;;;;5075430;28;20379;-59
2021/01/15 06:12:16;;;;;;;2.70;1.00;;;20.90;27.60;;;;;;5074785;28;20403;-59
2021/01/15 06:14:57;;;;;;;3.47;1.20;;;20.90;27.70;;;;;;5075233;28;20419;-59
2021/01/15 06:17:23;;;;;;;1.90;1.15;;;20.80;27.70;;;;;;5075223;28;20387;-59
2021/01/15 06:19:50;;;;;;;3.25;1.13;;;20.80;27.70;;;;;;5074765;28;20392;-59
2021/01/15 06:22:37;;;;;;;1.60;1.10;;;20.80;27.60;;;;;;5075042;28;20395;-59
2021/01/15 06:25:28;;;;;;;4.03;1.20;;;20.80;27.60;;;;;;5074971;28;20383;-59
2021/01/15 06:27:56;;;;;;;5.95;1.40;;;20.80;27.50;;;;;;5074514;28;20398;-59
2021/01/15 06:30:28;;;;;;;3.35;1.10;;;20.70;27.50;;;;;;5074589;28;20424;-62
2021/01/15 06:33:06;;;;;;;5.38;1.30;;;20.70;27.50;;;;;;5072047;28;20400;-59
2021/01/15 06:35:36;;;;;;;3.83;1.30;;;20.70;27.40;;;;;;5073742;28;20423;-59
2021/01/15 06:38:09;;;;;;;4.17;1.20;;;20.70;27.50;;;;;;5073638;28;20434;-59
2021/01/15 06:40:42;;;;;;;2.70;1.10;;;20.70;27.40;;;;;;5069407;28;20928;-59
2021/01/15 06:43:20;;;;;;;4.05;1.30;;;20.70;27.30;;;;;;5074550;28;20437;-59
2021/01/15 06:46:00;;;;;;;3.50;1.30;;;20.70;27.40;;;;;;5074451;28;20399;-59
2021/01/15 06:48:36;;;;;;;3.00;1.40;;;20.70;27.40;;;;;;5074719;28;20906;-59
2021/01/15 06:51:03;;;;;;;3.20;1.35;;;20.70;28.00;;;;;;5074778;28;20735;-59
2021/01/15 06:53:33;;;;;;;3.47;1.30;;;20.70;27.40;;;;;;5074418;28;20395;-70
2021/01/15 06:56:05;;;;;;;2.72;1.20;;;20.70;27.50;;;;;;5074077;28;20424;-60
2021/01/15 06:58:42;;;;;;;3.95;1.25;;;20.70;27.50;;;;;;5074280;28;20399;-64
2021/01/15 07:01:25;;;;;;;2.35;1.30;;;20.70;27.50;;;;;;5074233;28;20388;-59
2021/01/15 07:04:18;;;;;;;2.90;1.60;;;20.70;27.50;;;;;;5073897;28;20375;-60
2021/01/15 07:07:07;;;;;;;3.00;1.70;;;20.80;27.10;;;;;;5074290;28;20375;-58
2021/01/15 07:09:35;;;;;;;2.60;1.70;;;20.80;27.10;;;;;;5064339;28;20430;-60
2021/01/15 07:12:39;;;;;;;2.50;1.33;;;20.80;27.30;;;;;;5070623;28;20407;-59
2021/01/15 07:15:14;;;;;;;3.33;2.10;;;20.80;27.40;;;;;;5058736;28;20411;-76
2021/01/15 07:17:46;;;;;;;3.25;1.88;;;20.70;27.60;;;;;;5073736;28;20392;-71
2021/01/15 07:20:17;;;;;;;3.58;1.80;;;20.70;27.60;;;;;;5074096;28;20840;-61
2021/01/15 07:23:07;;;;;;;3.72;1.90;;;20.70;27.50;;;;;;5074114;28;20744;-59
2021/01/15 07:25:32;;;;;;;4.03;1.98;;;20.80;27.60;;;;;;5073934;28;20380;-59
2021/01/15 07:27:58;;;;;;;4.70;2.17;;;20.70;27.50;;;;;;5073420;28;20388;-59
2021/01/15 07:30:26;;;;;;;3.70;1.90;;;20.70;27.50;;;;;;5073731;28;20475;-61
2021/01/15 07:32:54;;;;;;;2.13;1.70;;;20.70;27.50;;;;;;5072423;28;20396;-71
2021/01/15 07:35:25;;;;;;;3.00;1.90;;;20.70;27.40;;;;;;5073707;28;20416;-75
2021/01/15 07:38:10;;;;;;;3.67;2.00;;;20.70;27.30;;;;;;5073192;28;20831;-59
2021/01/15 07:40:36;;;;;;;3.97;2.05;;;20.70;27.40;;;;;;5073520;28;20470;-60
2021/01/15 07:43:02;;;;;;;3.38;2.30;;;20.70;27.40;;;;;;5071098;28;20403;-60
2021/01/15 07:45:28;;;;;;;4.00;2.40;;;20.70;27.30;;;;;;5071830;28;20898;-59
2021/01/15 07:48:02;;;;;;;3.85;2.47;;;20.60;27.20;;;;;;5072214;28;20388;-59
2021/01/15 07:50:35;;;;;;;4.70;2.55;;;20.60;27.40;;;;;;5073278;28;20433;-58
2021/01/15 07:53:18;;;;;;;4.30;2.50;;;20.60;27.50;;;;;;5073284;28;20380;-59
2021/01/15 07:55:49;;;;;;;5.00;2.70;;;20.60;27.40;;;;;;5073197;28;20494;-59
2021/01/15 07:58:23;;;;;;;5.20;2.40;;;20.70;27.30;;;;;;5070103;28;20422;-59
2021/01/15 08:00:50;;;;;;;4.63;2.80;;;20.70;27.30;;;;;;5072635;28;20407;-62
2021/01/15 08:03:16;;;;;;;5.25;2.60;;;20.70;27.30;;;;;;5072888;28;20387;-78
2021/01/15 08:05:46;;;;;;;5.00;2.88;;;20.70;27.30;;;;;;5070443;28;20395;-59
2021/01/15 08:08:17;;;;;;;3.92;2.83;;;20.70;27.10;;;;;;5072135;28;20872;-59
2021/01/15 08:10:46;;;;;;;4.40;2.90;;;20.70;27.00;;;;;;5072499;28;20438;-59
2021/01/15 08:13:29;;;;;;;4.03;2.88;;;20.70;26.90;;;;;;5072249;28;20437;-59
2021/01/15 08:15:56;;;;;;;3.88;3.25;;;20.70;26.90;;;;;;5072078;28;20411;-69
2021/01/15 08:18:23;;;;;;;4.07;3.20;;;20.70;26.90;;;;;;5072831;28;20391;-60
2021/01/15 08:20:51;;;;;;;4.40;3.33;;;20.70;26.90;;;;;;5072787;28;20392;-59
2021/01/15 08:23:22;;;;;;;4.70;3.40;;;20.70;26.90;;;;;;5072713;28;20384;-59
2021/01/15 08:25:50;;;;;;;4.40;3.63;;;20.80;26.90;;;;;;5072218;28;20748;-59
2021/01/15 08:28:16;;;;;;;4.95;4.22;;;20.70;26.90;;;;;;5071175;28;20411;-60
2021/01/15 08:30:57;;;;;;;6.38;4.75;;;20.70;26.80;;;;;;5072322;28;20396;-59
2021/01/15 08:33:23;;;;;;;6.40;5.40;;;20.70;26.80;;;;;;5072516;28;20404;-59
2021/01/15 08:35:54;;;;;;;10.02;6.97;;;20.80;26.90;;;;;;5072038;28;20407;-59
2021/01/15 08:38:36;;;;;;;10.38;8.07;;;20.80;26.70;;;;;;5072369;28;20392;-59
2021/01/15 08:41:23;;;;;;;9.43;7.28;;;20.80;26.60;;;;;;5072421;28;20391;-78
2021/01/15 08:43:53;;;;;;;11.40;7.20;;;20.70;26.80;;;;;;5072134;28;20392;-59
2021/01/15 08:46:20;;;;;;;11.13;7.88;;;20.80;27.00;;;;;;5072305;28;20407;-59
2021/01/15 08:48:47;;;;;;;10.40;7.25;;;20.80;27.00;;;;;;5072082;28;20388;-60
2021/01/15 08:51:19;;;;;;;11.63;7.07;;;20.90;27.10;;;;;;5071999;28;20387;-60
2021/01/15 08:56:50;;;;;;;9.75;6.88;;;21.00;27.20;;;;;;5049820;28;20421;-66
2021/01/15 08:59:30;;;;;;;9.80;6.90;;;21.00;27.40;;;;;;5067410;28;20883;-59
2021/01/15 09:02:06;;;;;;;13.50;7.32;;;21.00;27.40;;;;;;5071590;28;20450;-59
2021/01/15 09:04:33;;;;;;;10.85;7.18;;;21.00;27.50;;;;;;5071919;28;20388;-60
2021/01/15 09:07:01;;;;;;;9.77;6.70;;;21.00;27.50;;;;;;5071892;28;20383;-59
2021/01/15 09:09:29;;;;;;;10.60;6.75;;;21.00;27.80;;;;;;5071780;28;20384;-59
2021/01/15 09:11:59;;;;;;;9.27;6.75;;;21.00;27.90;;;;;;5071418;28;20391;-59
2021/01/15 09:14:25;;;;;;;9.07;6.18;;;21.00;28.10;;;;;;5071990;28;20836;-60
2021/01/15 09:16:53;;;;;;;8.77;6.20;;;21.00;28.10;;;;;;5071673;28;20446;-62
2021/01/15 09:19:19;;;;;;;14.63;8.10;;;21.10;28.80;;;;;;5064518;28;20478;-61
2021/01/15 09:21:51;;;;;;;11.23;6.45;;;21.10;28.50;;;;;;5069954;28;20392;-59
2021/01/15 09:24:19;;;;;;;10.45;6.10;;;21.20;28.50;;;;;;5071368;28;20379;-59
2021/01/15 09:26:46;;;;;;;10.00;6.50;;;21.20;28.60;;;;;;5071685;28;21111;-59
2021/01/15 09:29:13;;;;;;;15.35;6.50;;;21.30;28.50;;;;;;5071634;28;20379;-76
2021/01/15 09:31:43;;;;;;;10.95;6.18;;;21.30;28.70;;;;;;5071922;28;20415;-59
2021/01/15 09:34:15;;;;;;;11.10;6.22;;;21.40;28.50;;;;;;5070830;28;20415;-60
2021/01/15 09:36:43;;;;;;;11.90;6.00;;;21.30;28.40;;;;;;5071465;28;20412;-60
2021/01/15 09:39:11;;;;;;;14.02;6.00;;;21.40;28.60;;;;;;5070968;28;20380;-61
2021/01/15 09:41:46;;;;;;;10.48;5.88;;;21.40;28.50;;;;;;5071641;28;20935;-60
2021/01/15 09:44:15;;;;;;;13.00;6.20;;;21.40;28.40;;;;;;5070884;28;20887;-60
2021/01/15 09:46:41;;;;;;;10.10;5.90;;;21.40;28.60;;;;;;5069565;28;20388;-59
2021/01/15 09:49:06;;;;;;;11.45;6.47;;;21.40;29.20;;;;;;5070219;28;20891;-60
2021/01/15 09:51:33;;;;;;;9.15;5.57;;;21.40;29.10;;;;;;5051603;28;20472;-59
2021/01/15 09:53:59;;;;;;;10.65;5.15;;;21.40;29.20;;;;;;5070745;28;20384;-59
2021/01/15 09:56:33;;;;;;;11.85;5.50;;;21.50;29.40;;;;;;5071118;28;20541;-59
2021/01/15 09:59:00;;;;;;;9.80;4.82;;;21.50;29.00;;;;;;5071194;28;20398;-60
2021/01/15 10:01:28;;;;;;;11.30;5.35;;;21.50;28.70;;;;;;5071167;28;20730;-59
2021/01/15 10:03:56;;;;;;;10.15;5.22;;;21.50;30.00;;;;;;5070568;28;20895;-59
2021/01/15 10:06:23;;;;;;;9.68;4.80;;;21.50;28.60;;;;;;5070981;28;20799;-60
2021/01/15 10:08:49;;;;;;;9.85;4.57;;;21.50;28.60;;;;;;5071293;28;20450;-60
2021/01/15 10:11:23;;;;;;;10.60;4.63;;;21.50;28.60;;;;;;5071015;28;20419;-60
2021/01/15 10:13:49;;;;;;;8.83;5.00;;;21.50;28.90;;;;;;5069290;28;20925;-60
2021/01/15 10:16:15;;;;;;;8.27;4.60;;;21.60;29.00;;;;;;5070524;28;20962;-60
2021/01/15 10:18:41;;;;;;;7.67;4.37;;;21.60;28.80;;;;;;5071013;28;20480;-60
2021/01/15 10:21:07;;;;;;;9.90;4.28;;;21.60;28.90;;;;;;5070977;28;20396;-60
2021/01/15 10:23:35;;;;;;;6.72;4.13;;;21.70;29.00;;;;;;5071078;28;20411;-60
2021/01/15 10:26:01;;;;;;;7.88;4.25;;;21.70;28.90;;;;;;5070654;28;20392;-60
2021/01/15 10:28:26;;;;;;;7.50;3.67;;;21.70;28.80;;;;;;5070791;28;20718;-60
2021/01/15 10:30:52;;;;;;;6.30;3.63;;;21.70;28.30;;;;;;5071245;28;20396;-60
2021/01/15 10:33:21;;;;;;;6.63;3.78;;;21.80;28.10;;;;;;5070710;28;20918;-60
2021/01/15 10:35:48;;;;;;;7.25;4.00;;;21.80;28.00;;;;;;5070913;28;20486;-60
2021/01/15 10:38:13;;;;;;;7.88;3.83;;;21.80;28.30;;;;;;5070415;28;20398;-60
2021/01/15 10:40:39;;;;;;;8.80;3.67;;;21.90;28.20;;;;;;5070899;28;20384;-60
2021/01/15 10:43:05;;;;;;;9.80;4.00;;;21.90;28.50;;;;;;5070702;28;20396;-60
2021/01/15 10:45:30;;;;;;;8.13;4.07;;;21.90;28.60;;;;;;5070868;28;20384;-59
2021/01/15 10:47:56;;;;;;;11.63;4.60;;;22.10;28.60;;;;;;5069808;28;20392;-60
2021/01/15 10:50:21;;;;;;;10.77;3.80;;;22.20;28.50;;;;;;5072933;28;20415;-60
2021/01/15 10:52:54;;;;;;;6.23;3.50;;;22.30;28.60;;;;;;5074468;28;20864;-59
2021/01/15 10:55:20;;;;;;;6.20;3.38;;;22.30;28.40;;;;;;5074189;28;20748;-59
2021/01/15 10:57:46;;;;;;;6.95;3.20;;;22.30;28.30;;;;;;5074469;28;20398;-77
2021/01/15 11:00:13;;;;;;;4.75;3.00;;;22.40;28.10;;;;;;5073231;28;20388;-67
2021/01/15 11:02:39;;;;;;;5.55;3.05;;;22.30;28.00;;;;;;5074741;28;20423;-67
2021/01/15 11:05:07;;;;;;;5.77;2.87;;;22.30;28.10;;;;;;5074698;28;20403;-67
2021/01/15 11:07:33;;;;;;;4.88;3.00;;;22.40;28.10;;;;;;5073326;28;20483;-66
2021/01/15 11:09:59;;;;;;;6.13;3.03;;;22.40;28.10;;;;;;5074710;28;20537;-65
2021/01/15 11:12:25;;;;;;;7.43;3.17;;;22.50;28.00;;;;;;5074755;28;20384;-67
2021/01/15 11:14:51;;;;;;;6.00;3.05;;;22.50;27.90;;;;;;5074571;28;20744;-67
2021/01/15 11:17:16;;;;;;;6.83;3.00;;;22.50;27.90;;;;;;5074373;28;20472;-67
2021/01/15 11:19:43;;;;;;;5.47;2.97;;;22.60;27.80;;;;;;5074514;28;20438;-67
2021/01/15 11:22:09;;;;;;;8.50;3.50;;;22.60;28.00;;;;;;5072353;28;20423;-66
2021/01/15 11:24:34;;;;;;;7.03;3.30;;;22.60;28.30;;;;;;5074391;28;20819;-67
2021/01/15 11:27:00;;;;;;;8.35;3.35;;;22.70;28.30;;;;;;5074043;28;20391;-68
2021/01/15 11:29:26;;;;;;;6.50;2.83;;;22.70;28.60;;;;;;5073461;28;20383;-67
2021/01/15 11:31:52;;;;;;;8.00;3.00;;;22.80;29.20;;;;;;5074062;28;20709;-66
2021/01/15 11:34:20;;;;;;;8.07;2.75;;;22.80;29.90;;;;;;5073593;28;20736;-67
2021/01/15 11:36:49;;;;;;;7.22;2.97;;;22.90;29.40;;;;;;5066862;28;20432;-67
2021/01/15 11:39:17;;;;;;;9.82;3.03;;;22.90;29.50;;;;;;5068216;28;20479;-67
2021/01/15 11:41:44;;;;;;;6.57;2.27;;;22.90;28.90;;;;;;5071516;28;20473;-67
2021/01/15 11:44:12;;;;;;;6.13;2.20;;;23.10;28.80;;;;;;5071209;28;20894;-68
2021/01/15 11:46:40;;;;;;;5.90;2.10;;;23.10;28.40;;;;;;5071002;28;20457;-67
2021/01/15 11:49:08;;;;;;;4.63;2.10;;;23.10;28.20;;;;;;5069644;28;20464;-67
2021/01/15 11:51:33;;;;;;;6.88;2.30;;;23.20;28.00;;;;;;5069863;28;20458;-69
2021/01/15 11:54:00;;;;;;;6.47;2.25;;;23.30;28.50;;;;;;5069133;28;20387;-68
2021/01/15 11:56:26;;;;;;;5.32;2.00;;;23.30;27.90;;;;;;5069584;28;20764;-67
2021/01/15 11:58:52;;;;;;;5.03;2.07;;;23.40;28.00;;;;;;5068607;28;20384;-68
2021/01/15 12:01:19;;;;;;;7.07;2.10;;;23.40;28.20;;;;;;5068150;28;20391;-69
2021/01/15 12:03:45;;;;;;;3.80;2.10;;;23.50;27.80;;;;;;5068652;28;20387;-68
2021/01/15 12:06:13;;;;;;;4.38;2.03;;;23.50;27.90;;;;;;5068555;28;20400;-67
2021/01/15 12:08:42;;;;;;;3.80;1.90;;;23.60;27.60;;;;;;5068528;28;20416;-71
2021/01/15 12:11:08;;;;;;;3.42;1.90;;;23.60;28.10;;;;;;5068513;28;20395;-67
2021/01/15 12:13:34;;;;;;;4.45;2.20;;;23.70;27.90;;;;;;5068915;28;21106;-67
2021/01/15 12:16:01;;;;;;;6.07;2.00;;;23.80;28.00;;;;;;5069309;28;20505;-67
2021/01/15 12:18:27;;;;;;;5.50;1.70;;;23.80;27.60;;;;;;5069546;28;20387;-70
2021/01/15 12:20:53;;;;;;;4.50;1.85;;;23.90;27.70;;;;;;5069096;28;20400;-66
2021/01/15 12:23:19;;;;;;;4.20;1.70;;;23.90;27.90;;;;;;5069183;28;20390;-67
2021/01/15 12:25:45;;;;;;;3.40;1.50;;;24.00;27.90;;;;;;5084644;28;20399;-66
2021/01/15 12:28:16;;;;;;;2.72;1.50;;;24.10;27.90;;;;;;5069427;28;20396;-66
2021/01/15 12:30:46;;;;;;;4.65;1.70;;;24.20;27.90;;;;;;5069379;28;20399;-67
2021/01/15 12:33:17;;;;;;;3.50;1.30;;;24.20;28.00;;;;;;5067739;28;20411;-67
2021/01/15 12:35:44;;;;;;;2.60;1.50;;;24.30;28.00;;;;;;5069075;28;20443;-66
2021/01/15 12:38:12;;;;;;;2.97;1.42;;;24.40;27.90;;;;;;5069152;28;20402;-67
2021/01/15 12:40:38;;;;;;;3.10;1.60;;;24.50;27.80;;;;;;5069322;28;20387;-66
2021/01/15 12:43:05;;;;;;;3.45;1.50;;;24.50;27.90;;;;;;5069207;28;20483;-66
2021/01/15 12:45:38;;;;;;;2.50;1.45;;;24.60;27.90;;;;;;5068980;28;20400;-66
2021/01/15 12:48:05;;;;;;;2.30;1.30;;;24.70;27.70;;;;;;5068831;28;20411;-66
2021/01/15 12:50:31;;;;;;;2.28;1.20;;;24.70;28.10;;;;;;5068746;28;20395;-66
2021/01/15 12:52:57;;;;;;;3.40;1.40;;;24.80;28.00;;;;;;5068772;28;20398;-66
2021/01/15 12:55:24;;;;;;;2.75;1.30;;;24.80;27.80;;;;;;5068706;28;20420;-65
2021/01/15 12:57:51;;;;;;;2.65;1.30;;;24.90;27.90;;;;;;5068786;28;20768;-65
2021/01/15 13:00:17;;;;;;;2.45;1.50;;;24.90;27.80;;;;;;5068605;28;20399;-66